createdAt,value
2019-01-26T00:00:57.556Z,33.20
2019-01-26T00:01:57.545Z,32.20
2019-01-26T00:02:57.537Z,30.30
2019-01-26T00:03:57.527Z,33.00
2019-01-26T00:04:57.521Z,31.50
2019-01-26T00:05:57.501Z,31.80
2019-01-26T00:06:57.498Z,32.10
2019-01-26T00:07:57.482Z,32.30
2019-01-26T00:08:57.474Z,32.90
2019-01-26T00:09:57.471Z,33.70
2019-01-26T00:10:57.449Z,32.10
2019-01-26T00:11:57.441Z,31.80
2019-01-26T00:12:57.433Z,32.50
2019-01-26T00:13:57.425Z,32.60
2019-01-26T00:14:57.412Z,32.00
2019-01-26T00:15:57.402Z,32.60
2019-01-26T00:16:57.387Z,32.20
2019-01-26T00:17:57.383Z,31.80
2019-01-26T00:18:57.364Z,30.50
2019-01-26T00:19:57.361Z,34.10
2019-01-26T00:20:57.347Z,31.80
2019-01-26T00:21:57.343Z,32.10
2019-01-26T00:22:57.332Z,30.80
2019-01-26T00:23:57.319Z,32.80
2019-01-26T00:24:57.307Z,32.40
2019-01-26T00:25:57.300Z,30.70
2019-01-26T00:26:57.294Z,32.40
2019-01-26T00:27:57.282Z,30.40
2019-01-26T00:28:57.269Z,31.50
2019-01-26T00:29:57.253Z,31.40
2019-01-26T00:30:57.248Z,32.60
2019-01-26T00:31:57.234Z,33.00
2019-01-26T00:32:57.239Z,33.20
2019-01-26T00:33:57.260Z,31.80
2019-01-26T00:34:57.201Z,33.60
2019-01-26T00:35:57.190Z,32.20
2019-01-26T00:36:57.178Z,33.00
2019-01-26T00:37:57.177Z,31.90
2019-01-26T00:38:57.169Z,32.70
2019-01-26T00:39:57.145Z,33.40
2019-01-26T00:40:57.141Z,33.80
2019-01-26T00:41:57.128Z,34.00
2019-01-26T00:42:57.118Z,33.30
2019-01-26T00:43:57.112Z,33.80
2019-01-26T00:44:57.106Z,33.40
2019-01-26T00:45:57.088Z,32.90
2019-01-26T00:46:57.070Z,33.90
2019-01-26T00:47:57.076Z,33.70
2019-01-26T00:48:57.056Z,31.50
2019-01-26T00:49:57.049Z,33.30
2019-01-26T00:50:57.042Z,34.80
2019-01-26T00:51:57.036Z,33.50
2019-01-26T00:52:57.012Z,34.70
2019-01-26T00:53:57.007Z,34.30
2019-01-26T00:54:56.990Z,34.50
2019-01-26T00:55:57.001Z,33.50
2019-01-26T00:56:56.985Z,33.40
2019-01-26T00:57:56.970Z,32.50
2019-01-26T00:58:57.023Z,33.70
2019-01-26T00:59:56.944Z,33.60
2019-01-26T01:00:56.935Z,34.20
2019-01-26T01:01:56.927Z,34.10
2019-01-26T01:02:56.906Z,34.50
2019-01-26T01:03:56.898Z,33.50
2019-01-26T01:04:56.892Z,34.00
2019-01-26T01:05:56.878Z,33.50
2019-01-26T01:06:56.871Z,32.10
2019-01-26T01:07:56.866Z,34.00
2019-01-26T01:08:56.860Z,34.30
2019-01-26T01:09:56.840Z,32.20
2019-01-26T01:10:56.829Z,34.50
2019-01-26T01:11:56.815Z,33.20
2019-01-26T01:12:56.809Z,33.90
2019-01-26T01:13:56.799Z,32.80
2019-01-26T01:14:56.783Z,33.70
2019-01-26T01:15:56.786Z,33.90
2019-01-26T01:16:56.763Z,34.00
2019-01-26T01:17:56.758Z,33.60
2019-01-26T01:18:56.784Z,30.70
2019-01-26T01:19:56.742Z,33.20
2019-01-26T01:20:56.772Z,34.00
2019-01-26T01:21:56.718Z,33.30
2019-01-26T01:22:56.704Z,33.10
2019-01-26T01:23:56.701Z,33.00
2019-01-26T01:24:56.691Z,33.30
2019-01-26T01:25:56.685Z,31.40
2019-01-26T01:26:56.659Z,32.00
2019-01-26T01:27:56.649Z,31.30
2019-01-26T01:28:56.637Z,33.20
2019-01-26T01:29:56.626Z,32.80
2019-01-26T01:30:56.620Z,31.70
2019-01-26T01:31:56.620Z,34.70
2019-01-26T01:32:56.600Z,33.10
2019-01-26T01:33:56.584Z,33.60
2019-01-26T01:34:56.581Z,33.10
2019-01-26T01:35:56.568Z,34.50
2019-01-26T01:36:56.567Z,33.80
2019-01-26T01:37:56.552Z,32.80
2019-01-26T01:38:56.544Z,34.00
2019-01-26T01:39:56.532Z,31.00
2019-01-26T01:40:56.514Z,32.70
2019-01-26T01:41:56.510Z,33.10
2019-01-26T01:42:56.499Z,32.30
2019-01-26T01:43:56.486Z,33.70
2019-01-26T01:44:56.472Z,32.00
2019-01-26T01:45:56.466Z,32.10
2019-01-26T01:46:56.472Z,33.00
2019-01-26T01:47:56.442Z,31.10
2019-01-26T01:48:56.433Z,31.00
2019-01-26T01:49:56.425Z,31.60
2019-01-26T01:50:56.410Z,31.60
2019-01-26T01:51:56.409Z,31.20
2019-01-26T01:52:56.403Z,31.10
2019-01-26T01:53:56.387Z,30.70
2019-01-26T01:54:56.381Z,32.00
2019-01-26T01:55:56.368Z,30.30
2019-01-26T01:56:56.355Z,31.90
2019-01-26T01:57:56.341Z,31.50
2019-01-26T01:58:56.339Z,31.70
2019-01-26T01:59:56.324Z,30.80
2019-01-26T02:00:56.320Z,30.90
2019-01-26T02:01:56.302Z,32.80
2019-01-26T02:02:56.335Z,29.70
2019-01-26T02:03:56.278Z,32.60
2019-01-26T02:04:56.331Z,31.60
2019-01-26T02:05:56.257Z,31.80
2019-01-26T02:06:56.246Z,30.40
2019-01-26T02:07:56.245Z,31.80
2019-01-26T02:08:56.224Z,31.00
2019-01-26T02:09:56.213Z,29.70
2019-01-26T02:10:56.206Z,29.60
2019-01-26T02:11:56.196Z,30.80
2019-01-26T02:12:56.188Z,30.20
2019-01-26T02:13:56.173Z,30.40
2019-01-26T02:14:56.166Z,29.60
2019-01-26T02:15:56.158Z,31.90
2019-01-26T02:16:56.146Z,32.10
2019-01-26T02:17:56.148Z,31.70
2019-01-26T02:18:56.127Z,32.60
2019-01-26T02:19:56.114Z,31.30
2019-01-26T02:20:56.100Z,32.10
2019-01-26T02:21:56.088Z,31.80
2019-01-26T02:22:56.084Z,32.30
2019-01-26T02:23:56.068Z,32.30
2019-01-26T02:24:56.057Z,32.90
2019-01-26T02:25:56.084Z,32.90
2019-01-26T02:26:56.061Z,31.70
2019-01-26T02:27:56.030Z,33.50
2019-01-26T02:28:56.028Z,31.90
2019-01-26T02:29:56.009Z,33.70
2019-01-26T02:30:55.997Z,33.70
2019-01-26T02:31:55.989Z,31.80
2019-01-26T02:32:55.978Z,33.40
2019-01-26T02:33:55.968Z,34.80
2019-01-26T02:34:55.970Z,33.80
2019-01-26T02:35:55.942Z,35.10
2019-01-26T02:36:55.946Z,34.70
2019-01-26T02:37:55.927Z,35.30
2019-01-26T02:38:55.919Z,35.00
2019-01-26T02:39:55.900Z,34.30
2019-01-26T02:40:55.900Z,33.00
2019-01-26T02:41:55.888Z,35.40
2019-01-26T02:42:55.872Z,33.60
2019-01-26T02:43:55.859Z,36.10
2019-01-26T02:44:55.870Z,36.70
2019-01-26T02:45:55.878Z,36.90
2019-01-26T02:46:58.052Z,36.00
2019-01-26T02:47:55.828Z,36.90
2019-01-26T02:48:55.811Z,36.10
2019-01-26T02:49:55.798Z,35.90
2019-01-26T02:50:55.795Z,37.60
2019-01-26T02:51:55.795Z,37.20
2019-01-26T02:52:55.782Z,37.90
2019-01-26T02:53:55.760Z,38.00
2019-01-26T02:54:55.751Z,37.90
2019-01-26T02:55:55.740Z,35.90
2019-01-26T02:56:55.726Z,36.20
2019-01-26T02:57:55.720Z,37.20
2019-01-26T02:58:55.707Z,38.40
2019-01-26T02:59:55.693Z,37.40
2019-01-26T03:00:55.683Z,35.80
2019-01-26T03:01:55.673Z,37.10
2019-01-26T03:02:55.665Z,34.60
2019-01-26T03:03:55.655Z,37.70
2019-01-26T03:04:55.645Z,37.70
2019-01-26T03:05:55.636Z,37.90
2019-01-26T03:06:55.626Z,36.00
2019-01-26T03:07:55.623Z,36.90
2019-01-26T03:08:55.604Z,37.70
2019-01-26T03:09:55.594Z,37.70
2019-01-26T03:10:55.578Z,38.50
2019-01-26T03:11:55.570Z,37.00
2019-01-26T03:12:55.557Z,38.20
2019-01-26T03:13:55.550Z,37.40
2019-01-26T03:14:55.544Z,39.30
2019-01-26T03:15:55.541Z,38.20
2019-01-26T03:16:55.521Z,38.40
2019-01-26T03:17:55.511Z,39.30
2019-01-26T03:18:55.498Z,39.80
2019-01-26T03:19:55.486Z,39.20
2019-01-26T03:20:55.472Z,39.30
2019-01-26T03:21:55.474Z,39.40
2019-01-26T03:22:55.454Z,37.40
2019-01-26T03:23:55.445Z,37.80
2019-01-26T03:24:55.430Z,40.40
2019-01-26T03:25:55.421Z,39.10
2019-01-26T03:26:55.430Z,39.60
2019-01-26T03:27:55.404Z,41.00
2019-01-26T03:28:55.394Z,38.60
2019-01-26T03:29:55.381Z,38.80
2019-01-26T03:30:55.379Z,39.30
2019-01-26T03:31:55.366Z,38.70
2019-01-26T03:32:55.356Z,39.30
2019-01-26T03:33:55.335Z,41.10
2019-01-26T03:34:55.330Z,40.30
2019-01-26T03:35:55.319Z,40.80
2019-01-26T03:36:55.307Z,40.20
2019-01-26T03:37:55.304Z,40.10
2019-01-26T03:38:55.302Z,41.00
2019-01-26T03:39:55.279Z,41.40
2019-01-26T03:40:55.268Z,39.10
2019-01-26T03:41:55.262Z,40.00
2019-01-26T03:42:55.245Z,41.00
2019-01-26T03:43:55.234Z,39.10
2019-01-26T03:44:55.222Z,36.00
2019-01-26T03:45:55.214Z,39.20
2019-01-26T03:46:55.208Z,40.40
2019-01-26T03:47:55.189Z,41.40
2019-01-26T03:48:55.187Z,41.90
2019-01-26T03:49:55.173Z,39.50
2019-01-26T03:50:55.159Z,40.50
2019-01-26T03:51:55.151Z,41.50
2019-01-26T03:52:55.139Z,40.30
2019-01-26T03:53:55.144Z,39.70
2019-01-26T03:54:55.118Z,39.80
2019-01-26T03:55:55.124Z,40.20
2019-01-26T03:56:55.095Z,40.10
2019-01-26T03:57:55.085Z,40.30
2019-01-26T03:58:55.075Z,42.50
2019-01-26T03:59:55.071Z,42.60
2019-01-26T04:00:55.064Z,38.30
2019-01-26T04:01:55.062Z,41.30
2019-01-26T04:02:55.033Z,40.00
2019-01-26T04:03:55.028Z,39.60
2019-01-26T04:04:55.015Z,42.20
2019-01-26T04:05:55.013Z,42.00
2019-01-26T04:06:54.992Z,42.40
2019-01-26T04:07:54.980Z,41.60
2019-01-26T04:08:54.972Z,41.10
2019-01-26T04:09:54.967Z,40.80
2019-01-26T04:10:54.946Z,42.60
2019-01-26T04:11:54.940Z,42.70
2019-01-26T04:12:54.935Z,42.10
2019-01-26T04:13:54.945Z,41.60
2019-01-26T04:14:54.913Z,42.50
2019-01-26T04:15:54.896Z,41.60
2019-01-26T04:16:54.902Z,42.20
2019-01-26T04:17:54.881Z,43.10
2019-01-26T04:18:54.871Z,42.00
2019-01-26T04:19:54.853Z,44.30
2019-01-26T04:20:54.848Z,43.80
2019-01-26T04:21:54.836Z,42.80
2019-01-26T04:22:54.831Z,43.40
2019-01-26T04:23:54.823Z,42.50
2019-01-26T04:24:54.801Z,43.00
2019-01-26T04:25:54.795Z,40.80
2019-01-26T04:26:54.783Z,42.00
2019-01-26T04:27:54.771Z,42.50
2019-01-26T04:28:54.785Z,39.70
2019-01-26T04:29:54.760Z,42.00
2019-01-26T04:30:54.746Z,41.60
2019-01-26T04:31:54.726Z,40.90
2019-01-26T04:32:54.716Z,42.30
2019-01-26T04:33:54.709Z,40.40
2019-01-26T04:34:54.697Z,40.60
2019-01-26T04:35:54.695Z,41.50
2019-01-26T04:36:54.694Z,41.00
2019-01-26T04:37:54.669Z,41.60
2019-01-26T04:38:54.658Z,42.30
2019-01-26T04:39:54.655Z,43.00
2019-01-26T04:40:54.640Z,39.30
2019-01-26T04:41:54.626Z,43.10
2019-01-26T04:42:54.612Z,43.00
2019-01-26T04:43:54.607Z,41.70
2019-01-26T04:44:54.598Z,43.20
2019-01-26T04:45:54.587Z,43.20
2019-01-26T04:46:54.582Z,42.50
2019-01-26T04:47:54.571Z,44.00
2019-01-26T04:48:54.548Z,43.40
2019-01-26T04:49:54.540Z,42.90
2019-01-26T04:50:54.530Z,43.00
2019-01-26T04:51:54.526Z,42.60
2019-01-26T04:52:54.509Z,43.20
2019-01-26T04:53:54.510Z,44.90
2019-01-26T04:54:54.499Z,42.60
2019-01-26T04:55:54.479Z,43.60
2019-01-26T04:56:54.488Z,43.40
2019-01-26T04:57:54.454Z,43.80
2019-01-26T04:58:54.449Z,43.30
2019-01-26T04:59:54.442Z,42.80
2019-01-26T05:00:54.427Z,43.00
2019-01-26T05:01:54.412Z,45.50
2019-01-26T05:02:54.415Z,43.40
2019-01-26T05:03:54.397Z,42.80
2019-01-26T05:04:54.392Z,44.10
2019-01-26T05:05:54.375Z,43.70
2019-01-26T05:06:54.362Z,42.80
2019-01-26T05:07:54.352Z,44.10
2019-01-26T05:08:54.334Z,43.00
2019-01-26T05:09:54.336Z,42.20
2019-01-26T05:10:54.343Z,42.70
2019-01-26T05:11:54.313Z,44.30
2019-01-26T05:12:54.302Z,43.00
2019-01-26T05:13:54.297Z,44.50
2019-01-26T05:14:54.276Z,46.00
2019-01-26T05:15:54.297Z,44.50
2019-01-26T05:16:54.255Z,44.00
2019-01-26T05:17:54.244Z,43.10
2019-01-26T05:18:54.236Z,43.70
2019-01-26T05:19:54.228Z,44.70
2019-01-26T05:20:54.212Z,45.00
2019-01-26T05:21:54.210Z,42.90
2019-01-26T05:22:54.200Z,45.90
2019-01-26T05:23:54.181Z,44.00
2019-01-26T05:24:54.171Z,46.00
2019-01-26T05:25:54.168Z,43.20
2019-01-26T05:26:54.156Z,44.10
2019-01-26T05:27:54.173Z,43.80
2019-01-26T05:28:54.129Z,42.50
2019-01-26T05:29:54.125Z,43.30
2019-01-26T05:30:54.115Z,44.40
2019-01-26T05:31:54.099Z,46.70
2019-01-26T05:32:54.121Z,46.00
2019-01-26T05:33:54.092Z,46.40
2019-01-26T05:34:54.099Z,45.80
2019-01-26T05:35:54.059Z,48.00
2019-01-26T05:36:54.044Z,46.10
2019-01-26T05:37:54.033Z,48.80
2019-01-26T05:38:54.026Z,46.40
2019-01-26T05:39:54.029Z,47.90
2019-01-26T05:40:54.008Z,46.70
2019-01-26T05:41:54.002Z,46.30
2019-01-26T05:42:53.989Z,47.60
2019-01-26T05:43:53.977Z,46.00
2019-01-26T05:44:53.964Z,48.90
2019-01-26T05:45:53.952Z,46.60
2019-01-26T05:46:53.949Z,48.10
2019-01-26T05:47:53.939Z,49.60
2019-01-26T05:48:53.931Z,47.10
2019-01-26T05:49:53.910Z,49.10
2019-01-26T05:50:53.910Z,47.60
2019-01-26T05:51:53.892Z,47.90
2019-01-26T05:52:53.886Z,48.60
2019-01-26T05:53:53.869Z,46.70
2019-01-26T05:54:53.868Z,47.50
2019-01-26T05:55:53.854Z,45.70
2019-01-26T05:56:53.849Z,47.90
2019-01-26T05:57:53.846Z,49.50
2019-01-26T05:58:53.822Z,48.50
2019-01-26T05:59:53.818Z,47.90
2019-01-26T06:00:53.803Z,49.40
2019-01-26T06:01:53.791Z,47.40
2019-01-26T06:02:53.786Z,49.80
2019-01-26T06:03:53.769Z,47.10
2019-01-26T06:04:53.763Z,48.10
2019-01-26T06:05:53.752Z,48.60
2019-01-26T06:06:53.734Z,47.20
2019-01-26T06:07:53.739Z,48.40
2019-01-26T06:08:53.731Z,47.40
2019-01-26T06:09:53.707Z,48.10
2019-01-26T06:10:53.693Z,47.90
2019-01-26T06:11:53.694Z,46.10
2019-01-26T06:12:53.673Z,47.20
2019-01-26T06:13:53.667Z,48.50
2019-01-26T06:14:53.652Z,45.10
2019-01-26T06:15:53.642Z,46.40
2019-01-26T06:16:53.632Z,45.20
2019-01-26T06:17:55.128Z,45.90
2019-01-26T06:18:53.614Z,45.30
2019-01-26T06:19:53.615Z,46.50
2019-01-26T06:20:53.592Z,43.80
2019-01-26T06:21:53.579Z,46.80
2019-01-26T06:22:53.570Z,48.10
2019-01-26T06:23:53.569Z,48.80
2019-01-26T06:24:53.550Z,45.80
2019-01-26T06:25:53.546Z,48.00
2019-01-26T06:26:53.535Z,48.00
2019-01-26T06:27:53.519Z,46.60
2019-01-26T06:28:53.509Z,42.90
2019-01-26T06:29:53.503Z,46.40
2019-01-26T06:30:53.494Z,45.20
2019-01-26T06:31:53.477Z,48.80
2019-01-26T06:32:53.467Z,46.00
2019-01-26T06:33:53.464Z,43.30
2019-01-26T06:34:53.448Z,48.50
2019-01-26T06:35:53.432Z,44.50
2019-01-26T06:36:53.426Z,45.00
2019-01-26T06:37:53.412Z,43.50
2019-01-26T06:38:53.586Z,42.80
2019-01-26T06:39:53.394Z,41.60
2019-01-26T06:40:53.380Z,41.20
2019-01-26T06:41:53.371Z,41.40
2019-01-26T06:42:53.374Z,43.50
2019-01-26T06:43:53.355Z,42.60
2019-01-26T06:44:53.335Z,40.50
2019-01-26T06:45:53.335Z,41.60
2019-01-26T06:46:53.332Z,39.50
2019-01-26T06:47:53.312Z,41.50
2019-01-26T06:48:53.306Z,40.50
2019-01-26T06:49:53.298Z,39.10
2019-01-26T06:50:53.281Z,38.40
2019-01-26T06:51:53.314Z,39.00
2019-01-26T06:52:53.256Z,39.10
2019-01-26T06:53:53.260Z,40.70
2019-01-26T06:54:53.238Z,37.50
2019-01-26T06:55:53.226Z,37.20
2019-01-26T06:56:53.221Z,37.90
2019-01-26T06:57:53.209Z,40.00
2019-01-26T06:58:53.194Z,37.70
2019-01-26T06:59:53.196Z,37.60
2019-01-26T07:00:53.261Z,37.10
2019-01-26T07:01:53.162Z,36.40
2019-01-26T07:02:53.155Z,39.00
2019-01-26T07:03:53.144Z,37.10
2019-01-26T07:04:53.157Z,37.40
2019-01-26T07:05:53.132Z,38.40
2019-01-26T07:06:53.114Z,38.10
2019-01-26T07:07:53.100Z,39.50
2019-01-26T07:08:53.097Z,40.50
2019-01-26T07:09:53.086Z,39.70
2019-01-26T07:10:53.076Z,40.60
2019-01-26T07:11:53.066Z,37.00
2019-01-26T07:12:53.048Z,39.00
2019-01-26T07:13:53.040Z,37.00
2019-01-26T07:14:53.033Z,38.50
2019-01-26T07:15:53.030Z,39.30
2019-01-26T07:16:53.012Z,35.90
2019-01-26T07:17:53.007Z,38.20
2019-01-26T07:18:52.988Z,37.60
2019-01-26T07:19:52.974Z,38.00
2019-01-26T07:20:52.967Z,38.80
2019-01-26T07:21:52.955Z,36.90
2019-01-26T07:22:52.953Z,37.30
2019-01-26T07:23:52.934Z,38.00
2019-01-26T07:24:52.924Z,37.50
2019-01-26T07:25:52.916Z,34.70
2019-01-26T07:26:52.903Z,38.00
2019-01-26T07:27:52.894Z,36.70
2019-01-26T07:28:52.892Z,33.50
2019-01-26T07:29:52.866Z,34.90
2019-01-26T07:30:52.862Z,33.80
2019-01-26T07:31:52.920Z,36.40
2019-01-26T07:32:52.853Z,33.80
2019-01-26T07:33:52.833Z,36.00
2019-01-26T07:34:52.827Z,33.20
2019-01-26T07:35:52.809Z,32.50
2019-01-26T07:36:52.803Z,32.70
2019-01-26T07:37:52.824Z,35.60
2019-01-26T07:38:52.836Z,33.10
2019-01-26T07:39:52.773Z,35.00
2019-01-26T07:40:52.779Z,34.00
2019-01-26T07:41:52.748Z,33.90
2019-01-26T07:42:52.735Z,30.50
2019-01-26T07:43:52.727Z,33.80
2019-01-26T07:44:52.734Z,33.30
2019-01-26T07:45:52.763Z,33.30
2019-01-26T07:46:52.723Z,31.50
2019-01-26T07:47:52.681Z,31.60
2019-01-26T07:48:52.670Z,33.90
2019-01-26T07:49:52.660Z,33.30
2019-01-26T07:50:52.655Z,34.10
2019-01-26T07:51:52.644Z,34.80
2019-01-26T07:52:52.630Z,34.00
2019-01-26T07:53:52.623Z,35.80
2019-01-26T07:54:52.614Z,35.20
2019-01-26T07:55:52.629Z,37.20
2019-01-26T07:56:52.596Z,34.60
2019-01-26T07:57:52.589Z,34.20
2019-01-26T07:58:52.572Z,33.10
2019-01-26T07:59:52.553Z,32.40
2019-01-26T08:00:52.560Z,34.30
2019-01-26T08:01:52.534Z,31.60
2019-01-26T08:02:52.539Z,30.30
2019-01-26T08:03:52.532Z,29.20
2019-01-26T08:04:52.498Z,32.80
2019-01-26T08:05:52.485Z,31.40
2019-01-26T08:06:52.479Z,32.70
2019-01-26T08:07:52.463Z,31.90
2019-01-26T08:08:52.466Z,32.80
2019-01-26T08:09:52.442Z,34.10
2019-01-26T08:10:52.433Z,33.70
2019-01-26T08:11:52.425Z,31.70
2019-01-26T08:12:52.423Z,32.80
2019-01-26T08:13:52.406Z,31.30
2019-01-26T08:14:52.449Z,31.80
2019-01-26T08:15:52.387Z,30.30
2019-01-26T08:16:52.371Z,29.90
2019-01-26T08:17:52.358Z,32.40
2019-01-26T08:18:52.355Z,30.90
2019-01-26T08:19:52.348Z,33.30
2019-01-26T08:20:52.333Z,31.20
2019-01-26T08:21:52.327Z,34.10
2019-01-26T08:22:52.306Z,29.80
2019-01-26T08:23:52.297Z,30.40
2019-01-26T08:24:52.281Z,30.70
2019-01-26T08:25:52.277Z,32.80
2019-01-26T08:26:52.267Z,31.00
2019-01-26T08:27:52.269Z,32.90
2019-01-26T08:28:52.252Z,32.40
2019-01-26T08:29:52.241Z,37.50
2019-01-26T08:30:52.225Z,33.30
2019-01-26T08:31:52.220Z,34.90
2019-01-26T08:32:52.201Z,33.60
2019-01-26T08:33:52.193Z,32.00
2019-01-26T08:34:52.199Z,33.60
2019-01-26T08:35:52.168Z,29.70
2019-01-26T08:36:52.191Z,30.80
2019-01-26T08:37:52.175Z,32.50
2019-01-26T08:38:52.139Z,32.30
2019-01-26T08:39:52.123Z,32.60
2019-01-26T08:40:52.130Z,31.40
2019-01-26T08:41:52.103Z,33.00
2019-01-26T08:42:52.095Z,31.90
2019-01-26T08:43:52.079Z,32.90
2019-01-26T08:44:52.075Z,31.90
2019-01-26T08:45:52.061Z,30.80
2019-01-26T08:46:52.085Z,33.20
2019-01-26T08:47:52.035Z,35.10
2019-01-26T08:48:52.043Z,32.90
2019-01-26T08:49:52.030Z,33.40
2019-01-26T08:50:52.006Z,27.00
2019-01-26T08:51:51.996Z,31.10
2019-01-26T08:52:51.995Z,31.30
2019-01-26T08:53:51.977Z,31.30
2019-01-26T08:54:51.973Z,30.50
2019-01-26T08:55:51.954Z,31.30
2019-01-26T08:56:51.949Z,31.70
2019-01-26T08:57:51.976Z,29.80
2019-01-26T08:58:51.947Z,35.80
2019-01-26T08:59:51.919Z,34.40
2019-01-26T09:00:51.913Z,32.50
2019-01-26T09:01:51.889Z,27.80
2019-01-26T09:02:51.883Z,31.10
2019-01-26T09:03:51.871Z,32.20
2019-01-26T09:04:51.860Z,32.30
2019-01-26T09:05:51.871Z,28.30
2019-01-26T09:06:51.916Z,30.90
2019-01-26T09:07:51.833Z,31.20
2019-01-26T09:08:51.819Z,30.30
2019-01-26T09:09:51.878Z,31.10
2019-01-26T09:10:51.827Z,29.90
2019-01-26T09:11:51.788Z,30.90
2019-01-26T09:12:51.820Z,28.50
2019-01-26T09:13:51.763Z,27.70
2019-01-26T09:14:51.754Z,29.90
2019-01-26T09:15:51.758Z,30.60
2019-01-26T09:16:51.768Z,31.20
2019-01-26T09:17:51.729Z,29.80
2019-01-26T09:18:51.709Z,29.40
2019-01-26T09:19:51.704Z,29.30
2019-01-26T09:20:51.701Z,29.90
2019-01-26T09:21:51.676Z,28.60
2019-01-26T09:22:51.679Z,27.70
2019-01-26T09:23:51.660Z,26.70
2019-01-26T09:24:51.678Z,27.30
2019-01-26T09:25:51.643Z,26.40
2019-01-26T09:26:51.629Z,27.60
2019-01-26T09:27:51.616Z,26.30
2019-01-26T09:28:51.610Z,25.30
2019-01-26T09:29:51.598Z,29.20
2019-01-26T09:30:51.585Z,25.60
2019-01-26T09:31:51.574Z,26.90
2019-01-26T09:32:51.651Z,26.70
2019-01-26T09:33:51.559Z,26.60
2019-01-26T09:34:51.551Z,26.40
2019-01-26T09:35:51.533Z,24.60
2019-01-26T09:36:51.528Z,27.80
2019-01-26T09:37:51.513Z,24.00
2019-01-26T09:38:51.507Z,26.10
2019-01-26T09:39:51.576Z,23.80
2019-01-26T09:40:51.487Z,24.60
2019-01-26T09:41:51.478Z,24.90
2019-01-26T09:42:51.505Z,24.30
2019-01-26T09:43:51.449Z,24.80
2019-01-26T09:44:51.432Z,23.20
2019-01-26T09:45:51.437Z,22.80
2019-01-26T09:46:51.416Z,24.70
2019-01-26T09:47:51.408Z,24.70
2019-01-26T09:48:51.391Z,22.50
2019-01-26T09:49:51.392Z,23.80
2019-01-26T09:50:51.375Z,23.10
2019-01-26T09:51:51.370Z,22.40
2019-01-26T09:52:51.353Z,22.80
2019-01-26T09:53:51.338Z,25.00
2019-01-26T09:54:51.338Z,22.60
2019-01-26T09:55:51.320Z,21.90
2019-01-26T09:56:51.315Z,22.60
2019-01-26T09:57:51.300Z,22.70
2019-01-26T09:58:51.291Z,23.40
2019-01-26T09:59:51.280Z,24.60
2019-01-26T10:00:51.272Z,22.00
2019-01-26T10:01:51.254Z,22.90
2019-01-26T10:02:51.255Z,22.60
2019-01-26T10:03:51.239Z,22.80
2019-01-26T10:04:51.229Z,22.40
2019-01-26T10:05:51.211Z,21.90
2019-01-26T10:06:51.206Z,22.70
2019-01-26T10:07:51.189Z,22.10
2019-01-26T10:08:51.187Z,21.60
2019-01-26T10:09:51.173Z,21.80
2019-01-26T10:10:51.159Z,22.20
2019-01-26T10:11:51.148Z,22.20
2019-01-26T10:12:51.143Z,21.00
2019-01-26T10:13:51.134Z,22.80
2019-01-26T10:14:51.123Z,21.50
2019-01-26T10:15:51.106Z,21.70
2019-01-26T10:16:51.095Z,20.80
2019-01-26T10:17:51.088Z,19.60
2019-01-26T10:18:53.656Z,19.80
2019-01-26T10:19:51.059Z,19.70
2019-01-26T10:20:51.065Z,20.10
2019-01-26T10:21:51.053Z,19.60
2019-01-26T10:22:51.032Z,19.50
2019-01-26T10:23:51.027Z,18.70
2019-01-26T10:24:51.014Z,18.50
2019-01-26T10:25:51.001Z,19.10
2019-01-26T10:26:50.993Z,20.10
2019-01-26T10:27:50.978Z,19.60
2019-01-26T10:28:50.970Z,19.50
2019-01-26T10:29:51.088Z,18.60
2019-01-26T10:30:50.950Z,18.20
2019-01-26T10:31:50.957Z,18.70
2019-01-26T10:32:50.931Z,19.20
2019-01-26T10:33:50.927Z,18.40
2019-01-26T10:34:50.913Z,18.00
2019-01-26T10:35:50.893Z,17.90
2019-01-26T10:36:50.892Z,17.90
2019-01-26T10:37:50.909Z,19.20
2019-01-26T10:38:50.864Z,19.00
2019-01-26T10:39:50.860Z,17.60
2019-01-26T10:40:50.839Z,17.80
2019-01-26T10:41:50.832Z,17.90
2019-01-26T10:42:50.821Z,17.90
2019-01-26T10:43:50.808Z,17.50
2019-01-26T10:44:50.891Z,18.20
2019-01-26T10:45:50.850Z,17.90
2019-01-26T10:46:50.784Z,18.00
2019-01-26T10:47:50.769Z,16.60
2019-01-26T10:48:50.882Z,17.80
2019-01-26T10:49:50.746Z,17.10
2019-01-26T10:50:50.739Z,17.10
2019-01-26T10:51:50.733Z,18.40
2019-01-26T10:52:50.712Z,17.00
2019-01-26T10:53:50.702Z,16.20
2019-01-26T10:54:50.694Z,16.20
2019-01-26T10:55:50.677Z,16.60
2019-01-26T10:56:50.672Z,16.30
2019-01-26T10:57:50.663Z,16.00
2019-01-26T10:58:50.649Z,15.80
2019-01-26T10:59:50.635Z,16.30
2019-01-26T11:00:50.751Z,15.90
2019-01-26T11:01:50.631Z,15.60
2019-01-26T11:02:50.614Z,16.10
2019-01-26T11:03:50.602Z,16.00
2019-01-26T11:04:50.582Z,15.00
2019-01-26T11:05:50.582Z,14.60
2019-01-26T11:06:50.568Z,14.80
2019-01-26T11:07:50.898Z,15.30
2019-01-26T11:08:50.541Z,15.00
2019-01-26T11:09:50.566Z,13.80
2019-01-26T11:10:50.564Z,14.60
2019-01-26T11:11:50.517Z,15.10
2019-01-26T11:12:50.498Z,15.30
2019-01-26T11:13:50.484Z,13.80
2019-01-26T11:14:50.485Z,13.20
2019-01-26T11:15:50.463Z,14.00
2019-01-26T11:16:50.455Z,13.60
2019-01-26T11:17:50.456Z,13.10
2019-01-26T11:18:50.443Z,12.50
2019-01-26T11:19:50.430Z,12.90
2019-01-26T11:20:50.416Z,13.50
2019-01-26T11:21:50.399Z,12.50
2019-01-26T11:22:50.392Z,12.10
2019-01-26T11:23:50.379Z,13.30
2019-01-26T11:24:50.374Z,12.70
2019-01-26T11:25:50.358Z,12.90
2019-01-26T11:26:50.351Z,11.70
2019-01-26T11:27:50.340Z,11.90
2019-01-26T11:28:50.334Z,12.00
2019-01-26T11:29:50.315Z,12.20
2019-01-26T11:30:50.312Z,12.10
2019-01-26T11:31:50.296Z,11.40
2019-01-26T11:32:50.305Z,12.00
2019-01-26T11:33:50.280Z,12.20
2019-01-26T11:34:50.278Z,11.00
2019-01-26T11:35:50.252Z,11.30
2019-01-26T11:36:50.249Z,11.70
2019-01-26T11:37:50.237Z,11.20
2019-01-26T11:38:50.227Z,12.00
2019-01-26T11:39:50.222Z,11.80
2019-01-26T11:40:50.202Z,11.00
2019-01-26T11:41:50.232Z,11.20
2019-01-26T11:42:50.186Z,11.00
2019-01-26T11:43:50.192Z,11.30
2019-01-26T11:44:50.167Z,11.90
2019-01-26T11:45:50.166Z,11.20
2019-01-26T11:46:50.137Z,12.10
2019-01-26T11:47:50.147Z,11.00
2019-01-26T11:48:50.124Z,11.20
2019-01-26T11:49:50.266Z,10.80
2019-01-26T11:50:50.107Z,11.00
2019-01-26T11:51:50.104Z,11.20
2019-01-26T11:52:50.069Z,12.30
2019-01-26T11:53:50.063Z,11.50
2019-01-26T11:54:50.061Z,11.40
2019-01-26T11:55:50.053Z,11.80
2019-01-26T11:56:50.069Z,10.00
2019-01-26T11:57:50.020Z,11.00
2019-01-26T11:58:50.078Z,11.80
2019-01-26T11:59:50.001Z,10.60
2019-01-26T12:00:50.328Z,11.80
2019-01-26T12:01:49.976Z,11.30
2019-01-26T12:02:49.981Z,10.80
2019-01-26T12:03:49.960Z,11.50
2019-01-26T12:04:49.944Z,10.60
2019-01-26T12:05:50.026Z,11.10
2019-01-26T12:06:51.375Z,11.80
2019-01-26T12:07:49.926Z,11.60
2019-01-26T12:08:49.922Z,11.60
2019-01-26T12:09:49.890Z,11.00
2019-01-26T12:10:49.877Z,11.00
2019-01-26T12:11:49.883Z,10.40
2019-01-26T12:12:49.987Z,10.00
2019-01-26T12:13:49.865Z,11.10
2019-01-26T12:14:49.833Z,10.70
2019-01-26T12:15:49.884Z,10.00
2019-01-26T12:16:49.818Z,11.10
2019-01-26T12:17:49.821Z,11.30
2019-01-26T12:18:49.797Z,10.70
2019-01-26T12:19:50.690Z,11.70
2019-01-26T12:20:49.771Z,9.80
2019-01-26T12:21:49.759Z,10.40
2019-01-26T12:22:49.755Z,10.70
2019-01-26T12:23:49.735Z,11.00
2019-01-26T12:24:49.741Z,10.40
2019-01-26T12:25:49.741Z,10.80
2019-01-26T12:26:49.702Z,10.60
2019-01-26T12:27:49.701Z,9.10
2019-01-26T12:28:49.694Z,10.00
2019-01-26T12:29:49.676Z,10.10
2019-01-26T12:30:49.678Z,9.90
2019-01-26T12:31:49.647Z,10.20
2019-01-26T12:32:49.642Z,9.20
2019-01-26T12:33:49.632Z,9.70
2019-01-26T12:34:49.625Z,10.00
2019-01-26T12:35:49.615Z,9.90
2019-01-26T12:36:49.609Z,10.50
2019-01-26T12:37:49.606Z,9.40
2019-01-26T12:38:49.575Z,10.00
2019-01-26T12:39:49.565Z,10.30
2019-01-26T12:40:49.562Z,9.50
2019-01-26T12:41:49.550Z,9.70
2019-01-26T12:42:49.546Z,8.70
2019-01-26T12:43:49.522Z,8.90
2019-01-26T12:44:49.517Z,9.40
2019-01-26T12:45:49.502Z,9.00
2019-01-26T12:46:49.492Z,9.30
2019-01-26T12:47:49.480Z,9.20
2019-01-26T12:48:49.473Z,8.50
2019-01-26T12:49:49.463Z,9.20
2019-01-26T12:50:49.458Z,8.70
2019-01-26T12:51:49.446Z,8.90
2019-01-26T12:52:49.429Z,8.60
2019-01-26T12:53:49.428Z,9.10